Terminal Aerodrome Forecast
Issued by NWS

Home | Current Version | Previous Version | Text Only | Print | Product List | Glossary On
Versions: 1 2 3 4 5 6 7 8 9 10 11 12 13 14 15 16 17 18 19
000
FTUS41 KGYX 212326
TAFHIE
TAF
KHIE 212326Z 2200/2224 VRB03KT P6SM -SHRA BKN100
     FM220800 VRB03KT 3SM BR BKN015
     FM221400 VRB03KT P6SM -SHRA BKN025=

USA.gov is the U.S. government's official web portal to all federal, state and local government web resources and services.